FDX415 LFKJ-LFPG
Flight info
| Callsign | FDX415 |
|---|---|
| Flight time | 1h 31m |
| Altitude | 34000 |
| Route | LONSU M622 PIGOS DCT BARSO DCT IRMAR DCT KINES DCT VANAS DCT MOBLO DCT UBIMA DCT UNKIR DCT GIVRI DCT TINIL |
| Aircraft | R722/M-SDFGRWY/S |
Departure
| Time | 2026-05-04 19:14 |
|---|---|
| Airport | Ajaccio Napoléon Bonaparte airport (LFKJ) |
Arrival
| Time | 2026-05-04 20:46 |
|---|---|
| Airport | Charles de Gaulle International Airport (LFPG) |
| Time | Latitude | Longitude | Altitude | Speed | Heading |
|---|---|---|---|---|---|
| 2026-05-04 18:49 | 41.92303 | 8.79135 | 25 ft | 0 kts | 184° |
| 2026-05-04 19:06 | 41.92299 | 8.79135 | 25 ft | 0 kts | 186° |
| 2026-05-04 19:06 | 41.92296 | 8.79134 | 25 ft | 1 kts | 188° |
| 2026-05-04 19:06 | 41.92288 | 8.79131 | 25 ft | 0 kts | 214° |
| 2026-05-04 19:07 | 41.92287 | 8.79129 | 25 ft | 0 kts | 236° |
| 2026-05-04 19:07 | 41.92287 | 8.79126 | 26 ft | 0 kts | 275° |
| 2026-05-04 19:07 | 41.92296 | 8.79114 | 27 ft | 4 kts | 338° |
| 2026-05-04 19:07 | 41.92334 | 8.79139 | 25 ft | 12 kts | 65° |
| 2026-05-04 19:08 | 41.92328 | 8.79299 | 25 ft | 19 kts | 95° |
| 2026-05-04 19:08 | 41.92316 | 8.79491 | 24 ft | 22 kts | 95° |
| 2026-05-04 19:08 | 41.92303 | 8.79708 | 24 ft | 25 kts | 94° |
| 2026-05-04 19:08 | 41.92320 | 8.79863 | 25 ft | 14 kts | 33° |
| 2026-05-04 19:09 | 41.92419 | 8.79925 | 26 ft | 18 kts | 24° |
| 2026-05-04 19:09 | 41.92539 | 8.80004 | 25 ft | 21 kts | 25° |
| 2026-05-04 19:09 | 41.92681 | 8.80093 | 26 ft | 24 kts | 26° |
| 2026-05-04 19:09 | 41.92825 | 8.80215 | 24 ft | 15 kts | 43° |
| 2026-05-04 19:10 | 41.92864 | 8.80270 | 24 ft | 10 kts | 47° |
| 2026-05-04 19:10 | 41.92914 | 8.80341 | 25 ft | 0 kts | 43° |
| 2026-05-04 19:10 | 41.92925 | 8.80354 | 25 ft | 0 kts | 43° |
| 2026-05-04 19:11 | 41.92955 | 8.80404 | 25 ft | 16 kts | 64° |
| 2026-05-04 19:11 | 41.92962 | 8.80434 | 25 ft | 0 kts | 82° |
| 2026-05-04 19:11 | 41.92962 | 8.80435 | 25 ft | 3 kts | 82° |
| 2026-05-04 19:12 | 41.92953 | 8.80528 | 28 ft | 12 kts | 94° |
| 2026-05-04 19:12 | 41.93126 | 8.80651 | 28 ft | 9 kts | 1° |
| 2026-05-04 19:12 | 41.93146 | 8.80673 | 28 ft | 4 kts | 82° |
| 2026-05-04 19:13 | 41.93139 | 8.80698 | 28 ft | 4 kts | 144° |
| 2026-05-04 19:13 | 41.93109 | 8.80696 | 29 ft | 7 kts | 216° |
| 2026-05-04 19:13 | 41.93093 | 8.80683 | 29 ft | 0 kts | 204° |
| 2026-05-04 19:14 | 41.93037 | 8.80649 | 29 ft | 47 kts | 205° |
| 2026-05-04 19:14 | 41.92405 | 8.80252 | 40 ft | 145 kts | 202° |
| 2026-05-04 19:14 | 41.91374 | 8.79601 | 739 ft | 173 kts | 204° |
| 2026-05-04 19:15 | 41.90203 | 8.78831 | 1562 ft | 207 kts | 205° |
| 2026-05-04 19:15 | 41.88815 | 8.77902 | 2652 ft | 231 kts | 206° |
| 2026-05-04 19:15 | 41.87409 | 8.77039 | 4547 ft | 217 kts | 202° |
| 2026-05-04 19:15 | 41.86005 | 8.76215 | 6088 ft | 224 kts | 204° |
| 2026-05-04 19:16 | 41.84563 | 8.75300 | 6995 ft | 237 kts | 206° |
| 2026-05-04 19:16 | 41.83029 | 8.74309 | 7715 ft | 261 kts | 206° |
| 2026-05-04 19:16 | 41.81274 | 8.73197 | 7969 ft | 293 kts | 205° |
| 2026-05-04 19:16 | 41.79444 | 8.72051 | 9099 ft | 288 kts | 206° |
| 2026-05-04 19:17 | 41.77609 | 8.70891 | 10046 ft | 294 kts | 206° |
| 2026-05-04 19:17 | 41.75741 | 8.69712 | 10874 ft | 298 kts | 206° |
| 2026-05-04 19:17 | 41.73857 | 8.68525 | 11737 ft | 301 kts | 207° |
| 2026-05-04 19:17 | 41.72075 | 8.67059 | 12497 ft | 304 kts | 225° |
| 2026-05-04 19:18 | 41.70812 | 8.64797 | 13327 ft | 306 kts | 240° |
| 2026-05-04 19:18 | 41.70063 | 8.62125 | 14130 ft | 311 kts | 256° |
| 2026-05-04 19:18 | 41.69938 | 8.59210 | 14862 ft | 318 kts | 273° |
| 2026-05-04 19:18 | 41.70507 | 8.56333 | 15704 ft | 324 kts | 290° |
| 2026-05-04 19:19 | 41.71732 | 8.53782 | 16293 ft | 339 kts | 309° |
| 2026-05-04 19:19 | 41.73626 | 8.51793 | 17051 ft | 349 kts | 327° |
| 2026-05-04 19:19 | 41.75841 | 8.50436 | 17879 ft | 359 kts | 336° |
| 2026-05-04 19:19 | 41.78239 | 8.49418 | 18796 ft | 364 kts | 340° |
| 2026-05-04 19:20 | 41.80692 | 8.48469 | 19618 ft | 369 kts | 339° |
| 2026-05-04 19:20 | 41.83119 | 8.47343 | 20515 ft | 371 kts | 335° |
| 2026-05-04 19:20 | 41.85554 | 8.46109 | 21407 ft | 376 kts | 335° |
| 2026-05-04 19:20 | 41.88034 | 8.44937 | 22302 ft | 382 kts | 337° |
| 2026-05-04 19:21 | 41.90568 | 8.43801 | 23214 ft | 386 kts | 337° |
| 2026-05-04 19:21 | 41.93131 | 8.42611 | 24041 ft | 391 kts | 336° |
| 2026-05-04 19:21 | 41.95711 | 8.41375 | 24848 ft | 395 kts | 335° |
| 2026-05-04 19:21 | 41.98318 | 8.40145 | 25690 ft | 400 kts | 335° |
| 2026-05-04 19:22 | 42.00963 | 8.38915 | 26502 ft | 405 kts | 335° |
| 2026-05-04 19:22 | 42.03641 | 8.37661 | 27312 ft | 410 kts | 334° |
| 2026-05-04 19:22 | 42.06343 | 8.36383 | 28140 ft | 414 kts | 334° |
| 2026-05-04 19:22 | 42.09078 | 8.35091 | 28948 ft | 420 kts | 333° |
| 2026-05-04 19:23 | 42.11858 | 8.33784 | 29759 ft | 425 kts | 333° |
| 2026-05-04 19:23 | 42.14669 | 8.32460 | 30494 ft | 429 kts | 333° |
| 2026-05-04 19:23 | 42.17494 | 8.31125 | 31221 ft | 433 kts | 333° |
| 2026-05-04 19:23 | 42.20350 | 8.29775 | 31949 ft | 437 kts | 333° |
| 2026-05-04 19:24 | 42.23240 | 8.28407 | 32662 ft | 441 kts | 333° |
| 2026-05-04 19:24 | 42.26147 | 8.27031 | 33370 ft | 445 kts | 332° |
| 2026-05-04 19:24 | 42.29085 | 8.25638 | 34066 ft | 450 kts | 332° |
| 2026-05-04 19:24 | 42.32052 | 8.24229 | 34666 ft | 454 kts | 332° |
| 2026-05-04 19:25 | 42.35047 | 8.22808 | 35291 ft | 458 kts | 333° |
| 2026-05-04 19:25 | 42.38031 | 8.21390 | 35904 ft | 462 kts | 333° |
| 2026-05-04 19:25 | 42.41067 | 8.19944 | 36528 ft | 465 kts | 333° |
| 2026-05-04 19:25 | 42.44141 | 8.18478 | 37150 ft | 469 kts | 333° |
| 2026-05-04 19:26 | 42.47235 | 8.17004 | 37791 ft | 472 kts | 333° |
| 2026-05-04 19:26 | 42.50340 | 8.15522 | 38435 ft | 476 kts | 334° |
| 2026-05-04 19:26 | 42.53478 | 8.14022 | 38976 ft | 480 kts | 334° |
| 2026-05-04 19:26 | 42.56634 | 8.12510 | 39379 ft | 485 kts | 334° |
| 2026-05-04 19:27 | 42.59838 | 8.10975 | 39799 ft | 490 kts | 334° |
| 2026-05-04 19:27 | 42.63073 | 8.09425 | 40211 ft | 496 kts | 335° |
| 2026-05-04 19:27 | 42.66349 | 8.07853 | 40621 ft | 500 kts | 335° |
| 2026-05-04 19:27 | 42.69646 | 8.06268 | 41010 ft | 505 kts | 335° |
| 2026-05-04 19:28 | 42.72979 | 8.04664 | 41391 ft | 510 kts | 335° |
| 2026-05-04 19:28 | 42.76342 | 8.03037 | 41782 ft | 514 kts | 335° |
| 2026-05-04 19:28 | 42.79624 | 8.01112 | 42089 ft | 515 kts | 329° |
| 2026-05-04 19:28 | 42.82785 | 7.98794 | 42448 ft | 516 kts | 325° |
| 2026-05-04 19:29 | 42.85858 | 7.96234 | 42776 ft | 519 kts | 324° |
| 2026-05-04 19:29 | 42.88974 | 7.93679 | 43071 ft | 525 kts | 327° |
| 2026-05-04 19:29 | 42.92188 | 7.91348 | 43308 ft | 514 kts | 329° |
| 2026-05-04 19:29 | 42.95266 | 7.89165 | 43002 ft | 483 kts | 327° |
| 2026-05-04 19:30 | 42.98133 | 7.86936 | 42693 ft | 471 kts | 325° |
| 2026-05-04 19:30 | 43.00982 | 7.84634 | 42398 ft | 477 kts | 326° |
| 2026-05-04 19:30 | 43.03839 | 7.82465 | 42132 ft | 475 kts | 327° |
| 2026-05-04 19:31 | 43.09604 | 7.78145 | 42043 ft | 472 kts | 325° |
| 2026-05-04 19:31 | 43.15306 | 7.73660 | 42035 ft | 474 kts | 326° |
| 2026-05-04 19:32 | 43.21064 | 7.69253 | 42039 ft | 475 kts | 326° |
| 2026-05-04 19:32 | 43.26802 | 7.64766 | 42042 ft | 475 kts | 326° |
| 2026-05-04 19:33 | 43.32557 | 7.60311 | 42042 ft | 475 kts | 326° |
| 2026-05-04 19:33 | 43.38315 | 7.55824 | 42040 ft | 475 kts | 326° |
| 2026-05-04 19:34 | 43.41197 | 7.53580 | 42041 ft | 476 kts | 326° |
| 2026-05-04 19:34 | 43.46588 | 7.49375 | 42044 ft | 476 kts | 326° |
| 2026-05-04 19:35 | 43.52356 | 7.44862 | 42054 ft | 476 kts | 326° |
| 2026-05-04 19:35 | 43.58082 | 7.40375 | 42054 ft | 477 kts | 326° |
| 2026-05-04 19:36 | 43.63826 | 7.35788 | 42052 ft | 476 kts | 324° |
| 2026-05-04 19:36 | 43.69070 | 7.30814 | 42056 ft | 474 kts | 321° |
| 2026-05-04 19:37 | 43.74603 | 7.25819 | 42039 ft | 476 kts | 323° |
| 2026-05-04 19:37 | 43.80118 | 7.20732 | 42046 ft | 475 kts | 321° |
| 2026-05-04 19:38 | 43.85633 | 7.15657 | 42051 ft | 476 kts | 323° |
| 2026-05-04 19:38 | 43.91151 | 7.10577 | 42065 ft | 476 kts | 322° |
| 2026-05-04 19:39 | 43.96661 | 7.05472 | 42063 ft | 477 kts | 322° |
| 2026-05-04 19:39 | 44.02189 | 7.00363 | 42077 ft | 477 kts | 322° |
| 2026-05-04 19:40 | 44.07704 | 6.95231 | 42072 ft | 477 kts | 322° |
| 2026-05-04 19:40 | 44.12343 | 6.91062 | 42076 ft | 480 kts | 328° |
| 2026-05-04 19:40 | 44.15446 | 6.89290 | 42086 ft | 488 kts | 340° |
| 2026-05-04 19:41 | 44.18789 | 6.88267 | 42088 ft | 491 kts | 347° |
| 2026-05-04 19:41 | 44.26724 | 6.87229 | 42083 ft | 494 kts | 352° |
| 2026-05-04 19:42 | 44.32411 | 6.86340 | 42092 ft | 492 kts | 348° |
| 2026-05-04 19:42 | 44.39239 | 6.85245 | 42095 ft | 493 kts | 351° |
| 2026-05-04 19:43 | 44.45908 | 6.84297 | 42097 ft | 493 kts | 349° |
| 2026-05-04 19:43 | 44.52722 | 6.83194 | 42106 ft | 493 kts | 351° |
| 2026-05-04 19:44 | 44.59542 | 6.82207 | 42117 ft | 493 kts | 350° |
| 2026-05-04 19:44 | 44.66307 | 6.81130 | 42110 ft | 494 kts | 351° |
| 2026-05-04 19:45 | 44.73141 | 6.80111 | 42125 ft | 494 kts | 350° |
| 2026-05-04 19:45 | 44.79974 | 6.79051 | 42126 ft | 495 kts | 351° |
| 2026-05-04 19:46 | 44.86867 | 6.78563 | 42133 ft | 498 kts | 356° |
| 2026-05-04 19:46 | 44.90386 | 6.78453 | 42133 ft | 511 kts | 354° |
| 2026-05-04 19:46 | 44.93945 | 6.78162 | 42144 ft | 509 kts | 353° |
| 2026-05-04 19:47 | 45.00965 | 6.77634 | 42126 ft | 508 kts | 355° |
| 2026-05-04 19:47 | 45.08029 | 6.77225 | 42130 ft | 507 kts | 354° |
| 2026-05-04 19:48 | 45.15084 | 6.76709 | 42112 ft | 507 kts | 354° |
| 2026-05-04 19:48 | 45.22147 | 6.76277 | 42107 ft | 507 kts | 354° |
| 2026-05-04 19:49 | 45.29146 | 6.75784 | 42102 ft | 507 kts | 354° |
| 2026-05-04 19:49 | 45.36192 | 6.75332 | 42087 ft | 506 kts | 354° |
| 2026-05-04 19:50 | 45.43243 | 6.74847 | 42080 ft | 507 kts | 354° |
| 2026-05-04 19:50 | 45.50300 | 6.74379 | 42078 ft | 507 kts | 354° |
| 2026-05-04 19:51 | 45.57348 | 6.73888 | 42070 ft | 507 kts | 354° |
| 2026-05-04 19:51 | 45.64379 | 6.73413 | 42060 ft | 507 kts | 354° |
| 2026-05-04 19:52 | 45.71455 | 6.72920 | 42065 ft | 508 kts | 354° |
| 2026-05-04 19:52 | 45.78513 | 6.72439 | 42058 ft | 508 kts | 354° |
| 2026-05-04 19:53 | 45.85387 | 6.71964 | 42051 ft | 509 kts | 354° |
| 2026-05-04 19:53 | 45.92448 | 6.71491 | 42046 ft | 508 kts | 354° |
| 2026-05-04 19:54 | 45.99512 | 6.71007 | 42043 ft | 508 kts | 354° |
| 2026-05-04 19:54 | 46.06559 | 6.70469 | 42024 ft | 505 kts | 350° |
| 2026-05-04 19:54 | 46.09982 | 6.69448 | 42036 ft | 502 kts | 339° |
| 2026-05-04 19:55 | 46.13168 | 6.67616 | 42041 ft | 496 kts | 329° |
| 2026-05-04 19:55 | 46.18691 | 6.61880 | 42033 ft | 488 kts | 314° |
| 2026-05-04 19:56 | 46.23476 | 6.54969 | 42019 ft | 486 kts | 310° |
| 2026-05-04 19:56 | 46.28387 | 6.48194 | 42029 ft | 489 kts | 314° |
| 2026-05-04 19:57 | 46.33262 | 6.41343 | 42027 ft | 487 kts | 311° |
| 2026-05-04 19:57 | 46.38116 | 6.34513 | 42028 ft | 489 kts | 313° |
| 2026-05-04 19:58 | 46.43007 | 6.27645 | 42030 ft | 489 kts | 311° |
| 2026-05-04 19:58 | 46.47845 | 6.20792 | 42025 ft | 489 kts | 312° |
| 2026-05-04 19:59 | 46.52728 | 6.13902 | 42028 ft | 489 kts | 312° |
| 2026-05-04 19:59 | 46.57595 | 6.06974 | 42016 ft | 490 kts | 312° |
| 2026-05-04 20:00 | 46.62475 | 6.00043 | 42020 ft | 490 kts | 312° |
| 2026-05-04 20:00 | 46.67347 | 5.93077 | 42007 ft | 489 kts | 312° |
| 2026-05-04 20:01 | 46.72196 | 5.86146 | 42013 ft | 490 kts | 312° |
| 2026-05-04 20:01 | 46.77030 | 5.79207 | 42007 ft | 489 kts | 312° |
| 2026-05-04 20:02 | 46.82033 | 5.72493 | 41989 ft | 494 kts | 322° |
| 2026-05-04 20:02 | 46.87996 | 5.67407 | 41988 ft | 498 kts | 330° |
| 2026-05-04 20:03 | 46.94124 | 5.62725 | 41924 ft | 496 kts | 327° |
| 2026-05-04 20:03 | 46.97052 | 5.60070 | 41433 ft | 485 kts | 323° |
| 2026-05-04 20:03 | 46.99847 | 5.57392 | 41724 ft | 470 kts | 323° |
| 2026-05-04 20:03 | 47.02479 | 5.54622 | 42325 ft | 469 kts | 316° |
| 2026-05-04 20:04 | 47.04906 | 5.51352 | 42255 ft | 482 kts | 312° |
| 2026-05-04 20:04 | 47.07318 | 5.47815 | 42149 ft | 493 kts | 312° |
| 2026-05-04 20:04 | 47.09796 | 5.44343 | 42043 ft | 492 kts | 316° |
| 2026-05-04 20:05 | 47.15226 | 5.38331 | 41976 ft | 494 kts | 322° |
| 2026-05-04 20:05 | 47.20675 | 5.32214 | 41984 ft | 491 kts | 316° |
| 2026-05-04 20:06 | 47.26008 | 5.25898 | 41971 ft | 493 kts | 320° |
| 2026-05-04 20:06 | 47.31459 | 5.19721 | 41673 ft | 491 kts | 317° |
| 2026-05-04 20:06 | 47.34097 | 5.16562 | 41294 ft | 490 kts | 318° |
| 2026-05-04 20:07 | 47.36760 | 5.13459 | 40673 ft | 483 kts | 319° |
| 2026-05-04 20:07 | 47.39389 | 5.10466 | 40050 ft | 475 kts | 319° |
| 2026-05-04 20:07 | 47.41973 | 5.07471 | 39429 ft | 469 kts | 317° |
| 2026-05-04 20:07 | 47.44501 | 5.04481 | 38821 ft | 463 kts | 317° |
| 2026-05-04 20:08 | 47.47007 | 5.01540 | 38139 ft | 458 kts | 318° |
| 2026-05-04 20:08 | 47.49506 | 4.98641 | 37538 ft | 453 kts | 318° |
| 2026-05-04 20:08 | 47.51940 | 4.95803 | 36950 ft | 449 kts | 317° |
| 2026-05-04 20:08 | 47.54370 | 4.92940 | 36365 ft | 445 kts | 317° |
| 2026-05-04 20:09 | 47.56783 | 4.90100 | 35798 ft | 441 kts | 317° |
| 2026-05-04 20:09 | 47.59177 | 4.87295 | 35207 ft | 437 kts | 317° |
| 2026-05-04 20:09 | 47.61547 | 4.84512 | 34641 ft | 433 kts | 317° |
| 2026-05-04 20:09 | 47.63869 | 4.81774 | 34072 ft | 429 kts | 317° |
| 2026-05-04 20:10 | 47.66198 | 4.79023 | 33462 ft | 424 kts | 317° |
| 2026-05-04 20:10 | 47.68500 | 4.76308 | 32901 ft | 421 kts | 317° |
| 2026-05-04 20:10 | 47.70776 | 4.73619 | 32340 ft | 417 kts | 317° |
| 2026-05-04 20:10 | 47.73046 | 4.70932 | 31795 ft | 414 kts | 317° |
| 2026-05-04 20:11 | 47.75296 | 4.68265 | 31248 ft | 411 kts | 317° |
| 2026-05-04 20:11 | 47.77518 | 4.65630 | 30711 ft | 408 kts | 317° |
| 2026-05-04 20:11 | 47.79704 | 4.63034 | 30180 ft | 406 kts | 317° |
| 2026-05-04 20:11 | 47.81903 | 4.60419 | 29604 ft | 403 kts | 317° |
| 2026-05-04 20:12 | 47.84084 | 4.57825 | 29064 ft | 399 kts | 317° |
| 2026-05-04 20:12 | 47.86247 | 4.55249 | 28552 ft | 396 kts | 317° |
| 2026-05-04 20:12 | 47.88392 | 4.52690 | 28014 ft | 393 kts | 317° |
| 2026-05-04 20:12 | 47.90511 | 4.50160 | 27508 ft | 389 kts | 317° |
| 2026-05-04 20:13 | 47.92627 | 4.47627 | 26986 ft | 403 kts | 317° |
| 2026-05-04 20:13 | 47.94911 | 4.44877 | 26442 ft | 432 kts | 317° |
| 2026-05-04 20:13 | 47.97223 | 4.42121 | 25883 ft | 421 kts | 318° |
| 2026-05-04 20:13 | 47.99503 | 4.39406 | 25320 ft | 416 kts | 318° |
| 2026-05-04 20:14 | 48.01736 | 4.36719 | 24760 ft | 412 kts | 317° |
| 2026-05-04 20:14 | 48.03962 | 4.34030 | 24230 ft | 408 kts | 318° |
| 2026-05-04 20:14 | 48.06163 | 4.31382 | 23699 ft | 405 kts | 318° |
| 2026-05-04 20:14 | 48.08352 | 4.28754 | 23113 ft | 401 kts | 318° |
| 2026-05-04 20:15 | 48.10510 | 4.26151 | 22588 ft | 396 kts | 318° |
| 2026-05-04 20:15 | 48.12649 | 4.23563 | 22057 ft | 393 kts | 318° |
| 2026-05-04 20:15 | 48.14764 | 4.21006 | 21542 ft | 390 kts | 318° |
| 2026-05-04 20:15 | 48.16862 | 4.18469 | 21027 ft | 386 kts | 318° |
| 2026-05-04 20:16 | 48.18817 | 4.16100 | 20549 ft | 383 kts | 318° |
| 2026-05-04 20:16 | 48.20874 | 4.13604 | 20058 ft | 380 kts | 319° |
| 2026-05-04 20:16 | 48.22930 | 4.11109 | 19554 ft | 377 kts | 319° |
| 2026-05-04 20:16 | 48.24954 | 4.08650 | 19063 ft | 374 kts | 319° |
| 2026-05-04 20:17 | 48.26969 | 4.06198 | 18572 ft | 371 kts | 319° |
| 2026-05-04 20:17 | 48.28962 | 4.03770 | 18064 ft | 368 kts | 319° |
| 2026-05-04 20:17 | 48.30946 | 4.01352 | 17570 ft | 365 kts | 319° |
| 2026-05-04 20:17 | 48.32906 | 3.98960 | 17068 ft | 362 kts | 319° |
| 2026-05-04 20:18 | 48.34856 | 3.96577 | 16599 ft | 360 kts | 319° |
| 2026-05-04 20:18 | 48.36767 | 3.94241 | 16133 ft | 357 kts | 319° |
| 2026-05-04 20:18 | 48.38711 | 3.91861 | 15655 ft | 354 kts | 319° |
| 2026-05-04 20:18 | 48.40542 | 3.89623 | 15209 ft | 323 kts | 319° |
| 2026-05-04 20:19 | 48.42253 | 3.87525 | 14950 ft | 313 kts | 319° |
| 2026-05-04 20:19 | 48.43916 | 3.85476 | 14934 ft | 313 kts | 319° |
| 2026-05-04 20:19 | 48.45606 | 3.83399 | 14932 ft | 314 kts | 319° |
| 2026-05-04 20:19 | 48.47302 | 3.81316 | 14932 ft | 314 kts | 319° |
| 2026-05-04 20:20 | 48.48999 | 3.79227 | 14936 ft | 314 kts | 319° |
| 2026-05-04 20:20 | 48.50691 | 3.77142 | 14939 ft | 315 kts | 319° |
| 2026-05-04 20:20 | 48.52388 | 3.75050 | 14940 ft | 315 kts | 319° |
| 2026-05-04 20:20 | 48.53996 | 3.72849 | 14934 ft | 313 kts | 310° |
| 2026-05-04 20:21 | 48.55311 | 3.70215 | 14934 ft | 312 kts | 301° |
| 2026-05-04 20:21 | 48.56413 | 3.67399 | 14941 ft | 312 kts | 298° |
| 2026-05-04 20:21 | 48.58756 | 3.61859 | 14938 ft | 313 kts | 303° |
| 2026-05-04 20:22 | 48.59960 | 3.59127 | 14938 ft | 313 kts | 302° |
| 2026-05-04 20:22 | 48.61133 | 3.56360 | 14943 ft | 312 kts | 301° |
| 2026-05-04 20:22 | 48.62303 | 3.53601 | 14942 ft | 313 kts | 302° |
| 2026-05-04 20:22 | 48.63492 | 3.50838 | 14944 ft | 313 kts | 302° |
| 2026-05-04 20:23 | 48.64675 | 3.48081 | 14943 ft | 313 kts | 302° |
| 2026-05-04 20:23 | 48.65856 | 3.45314 | 14947 ft | 314 kts | 302° |
| 2026-05-04 20:23 | 48.67040 | 3.42538 | 14946 ft | 313 kts | 302° |
| 2026-05-04 20:23 | 48.68222 | 3.39768 | 14950 ft | 313 kts | 302° |
| 2026-05-04 20:24 | 48.69391 | 3.37024 | 14944 ft | 313 kts | 302° |
| 2026-05-04 20:24 | 48.70567 | 3.34259 | 14944 ft | 314 kts | 302° |
| 2026-05-04 20:24 | 48.71751 | 3.31477 | 14949 ft | 314 kts | 302° |
| 2026-05-04 20:24 | 48.72930 | 3.28700 | 14951 ft | 314 kts | 302° |
| 2026-05-04 20:25 | 48.74111 | 3.25917 | 14952 ft | 314 kts | 302° |
| 2026-05-04 20:25 | 48.75293 | 3.23127 | 14950 ft | 314 kts | 302° |
| 2026-05-04 20:25 | 48.76440 | 3.20418 | 14949 ft | 314 kts | 302° |
| 2026-05-04 20:25 | 48.77658 | 3.17536 | 14256 ft | 321 kts | 302° |
| 2026-05-04 20:26 | 48.78855 | 3.14704 | 13043 ft | 317 kts | 302° |
| 2026-05-04 20:26 | 48.79628 | 3.12877 | 12946 ft | 304 kts | 302° |
| 2026-05-04 20:26 | 48.80766 | 3.10178 | 12935 ft | 305 kts | 302° |
| 2026-05-04 20:26 | 48.81913 | 3.07455 | 12934 ft | 305 kts | 302° |
| 2026-05-04 20:27 | 48.83045 | 3.04763 | 12932 ft | 305 kts | 302° |
| 2026-05-04 20:27 | 48.84197 | 3.02039 | 12937 ft | 306 kts | 303° |
| 2026-05-04 20:27 | 48.85475 | 2.99469 | 12933 ft | 306 kts | 311° |
| 2026-05-04 20:27 | 48.86808 | 2.97380 | 12942 ft | 306 kts | 316° |
| 2026-05-04 20:28 | 48.87534 | 2.96302 | 12944 ft | 306 kts | 315° |
| 2026-05-04 20:28 | 48.89009 | 2.93949 | 12946 ft | 307 kts | 312° |
| 2026-05-04 20:28 | 48.90418 | 2.91517 | 12947 ft | 307 kts | 311° |
| 2026-05-04 20:28 | 48.91838 | 2.89095 | 12949 ft | 306 kts | 311° |
| 2026-05-04 20:29 | 48.92966 | 2.86356 | 12953 ft | 306 kts | 292° |
| 2026-05-04 20:29 | 48.93507 | 2.83226 | 12949 ft | 307 kts | 276° |
| 2026-05-04 20:29 | 48.93545 | 2.80026 | 12957 ft | 307 kts | 267° |
| 2026-05-04 20:29 | 48.93344 | 2.76757 | 12963 ft | 307 kts | 262° |
| 2026-05-04 20:30 | 48.93102 | 2.73588 | 12970 ft | 307 kts | 264° |
| 2026-05-04 20:30 | 48.92939 | 2.70390 | 12973 ft | 307 kts | 266° |
| 2026-05-04 20:30 | 48.92793 | 2.67122 | 12962 ft | 307 kts | 265° |
| 2026-05-04 20:30 | 48.92619 | 2.63927 | 12969 ft | 307 kts | 264° |
| 2026-05-04 20:31 | 48.92430 | 2.60616 | 11937 ft | 312 kts | 265° |
| 2026-05-04 20:31 | 48.92258 | 2.57395 | 11334 ft | 301 kts | 265° |
| 2026-05-04 20:31 | 48.92091 | 2.54277 | 10840 ft | 299 kts | 265° |
| 2026-05-04 20:31 | 48.91918 | 2.51132 | 10353 ft | 297 kts | 265° |
| 2026-05-04 20:32 | 48.91747 | 2.48027 | 9874 ft | 294 kts | 265° |
| 2026-05-04 20:32 | 48.91576 | 2.44932 | 9345 ft | 293 kts | 265° |
| 2026-05-04 20:32 | 48.91407 | 2.41869 | 8825 ft | 290 kts | 265° |
| 2026-05-04 20:32 | 48.91235 | 2.38807 | 8312 ft | 288 kts | 265° |
| 2026-05-04 20:33 | 48.91066 | 2.35784 | 7808 ft | 287 kts | 265° |
| 2026-05-04 20:33 | 48.90899 | 2.32803 | 7314 ft | 275 kts | 265° |
| 2026-05-04 20:33 | 48.90740 | 2.30004 | 6964 ft | 252 kts | 265° |
| 2026-05-04 20:33 | 48.90597 | 2.27494 | 6956 ft | 232 kts | 265° |
| 2026-05-04 20:34 | 48.90459 | 2.25074 | 6950 ft | 229 kts | 265° |
| 2026-05-04 20:34 | 48.90319 | 2.22648 | 6934 ft | 231 kts | 265° |
| 2026-05-04 20:34 | 48.90180 | 2.20213 | 6700 ft | 232 kts | 265° |
| 2026-05-04 20:34 | 48.90038 | 2.17748 | 6340 ft | 233 kts | 265° |
| 2026-05-04 20:35 | 48.89896 | 2.15300 | 5953 ft | 232 kts | 265° |
| 2026-05-04 20:35 | 48.89754 | 2.12862 | 5571 ft | 231 kts | 265° |
| 2026-05-04 20:35 | 48.89821 | 2.10457 | 5159 ft | 225 kts | 290° |
| 2026-05-04 20:35 | 48.89906 | 2.08086 | 4932 ft | 227 kts | 257° |
| 2026-05-04 20:36 | 48.89626 | 2.05743 | 4778 ft | 228 kts | 261° |
| 2026-05-04 20:36 | 48.89518 | 2.03338 | 4374 ft | 227 kts | 275° |
| 2026-05-04 20:36 | 48.90050 | 2.01165 | 3946 ft | 222 kts | 314° |
| 2026-05-04 20:36 | 48.91327 | 2.00037 | 3955 ft | 212 kts | 352° |
| 2026-05-04 20:37 | 48.92745 | 2.00363 | 3957 ft | 209 kts | 30° |
| 2026-05-04 20:37 | 48.93942 | 2.01748 | 3980 ft | 239 kts | 42° |
| 2026-05-04 20:37 | 48.95190 | 2.03411 | 3978 ft | 230 kts | 41° |
| 2026-05-04 20:37 | 48.96397 | 2.04990 | 3970 ft | 229 kts | 41° |
| 2026-05-04 20:38 | 48.97600 | 2.06573 | 3973 ft | 223 kts | 41° |
| 2026-05-04 20:38 | 48.98694 | 2.08013 | 3964 ft | 193 kts | 41° |
| 2026-05-04 20:38 | 48.99692 | 2.09327 | 3952 ft | 188 kts | 41° |
| 2026-05-04 20:38 | 49.00675 | 2.10623 | 3955 ft | 187 kts | 41° |
| 2026-05-04 20:39 | 49.01660 | 2.11921 | 3962 ft | 187 kts | 41° |
| 2026-05-04 20:39 | 49.02641 | 2.13213 | 3960 ft | 187 kts | 41° |
| 2026-05-04 20:39 | 49.03442 | 2.14745 | 3925 ft | 187 kts | 73° |
| 2026-05-04 20:39 | 49.03332 | 2.16676 | 3979 ft | 189 kts | 108° |
| 2026-05-04 20:40 | 49.02786 | 2.18513 | 3917 ft | 192 kts | 116° |
| 2026-05-04 20:40 | 49.02156 | 2.20302 | 3782 ft | 191 kts | 117° |
| 2026-05-04 20:40 | 49.01502 | 2.22056 | 3735 ft | 190 kts | 118° |
| 2026-05-04 20:40 | 49.00931 | 2.23868 | 3677 ft | 189 kts | 101° |
| 2026-05-04 20:41 | 49.00885 | 2.25823 | 3652 ft | 187 kts | 86° |
| 2026-05-04 20:41 | 49.00960 | 2.27782 | 3539 ft | 183 kts | 83° |
| 2026-05-04 20:41 | 49.01138 | 2.29700 | 3308 ft | 178 kts | 82° |
| 2026-05-04 20:41 | 49.01227 | 2.31489 | 3011 ft | 164 kts | 83° |
| 2026-05-04 20:42 | 49.01364 | 2.33185 | 2869 ft | 162 kts | 82° |
| 2026-05-04 20:42 | 49.01493 | 2.34804 | 2752 ft | 137 kts | 83° |
| 2026-05-04 20:42 | 49.01574 | 2.36169 | 2574 ft | 124 kts | 84° |
| 2026-05-04 20:42 | 49.01640 | 2.37461 | 2428 ft | 123 kts | 83° |
| 2026-05-04 20:43 | 49.01727 | 2.38759 | 2341 ft | 123 kts | 82° |
| 2026-05-04 20:43 | 49.01816 | 2.40075 | 2211 ft | 124 kts | 84° |
| 2026-05-04 20:43 | 49.01867 | 2.41364 | 2006 ft | 123 kts | 85° |
| 2026-05-04 20:43 | 49.01925 | 2.42659 | 1759 ft | 121 kts | 84° |
| 2026-05-04 20:44 | 49.01981 | 2.43936 | 1532 ft | 120 kts | 84° |
| 2026-05-04 20:44 | 49.02065 | 2.45217 | 1367 ft | 120 kts | 82° |
| 2026-05-04 20:44 | 49.02149 | 2.46472 | 1214 ft | 120 kts | 84° |
| 2026-05-04 20:44 | 49.02216 | 2.47751 | 1063 ft | 122 kts | 84° |
| 2026-05-04 20:45 | 49.02286 | 2.49042 | 868 ft | 122 kts | 84° |
| 2026-05-04 20:45 | 49.02354 | 2.50338 | 691 ft | 122 kts | 84° |
| 2026-05-04 20:45 | 49.02426 | 2.51640 | 529 ft | 123 kts | 84° |
| 2026-05-04 20:45 | 49.02495 | 2.52930 | 371 ft | 120 kts | 84° |
| 2026-05-04 20:46 | 49.02558 | 2.54041 | 358 ft | 87 kts | 84° |
| 2026-05-04 20:46 | 49.02593 | 2.54700 | 359 ft | 56 kts | 85° |
| 2026-05-04 20:46 | 49.02607 | 2.55028 | 361 ft | 22 kts | 91° |
| 2026-05-04 20:46 | 49.02580 | 2.55262 | 365 ft | 23 kts | 108° |
| 2026-05-04 20:47 | 49.02532 | 2.55422 | 362 ft | 0 kts | 117° |
| 2026-05-04 20:47 | 49.02512 | 2.55480 | 363 ft | 6 kts | 117° |
| 2026-05-04 20:47 | 49.02510 | 2.55487 | 363 ft | 3 kts | 117° |
| 2026-05-04 20:48 | 49.02457 | 2.55595 | 359 ft | 17 kts | 155° |
| 2026-05-04 20:48 | 49.02328 | 2.55623 | 358 ft | 21 kts | 175° |
| 2026-05-04 20:48 | 49.02166 | 2.55642 | 364 ft | 25 kts | 175° |
| 2026-05-04 20:48 | 49.01992 | 2.55665 | 358 ft | 21 kts | 175° |
| 2026-05-04 20:49 | 49.01897 | 2.55630 | 361 ft | 14 kts | 246° |
| 2026-05-04 20:49 | 49.01882 | 2.55460 | 359 ft | 18 kts | 265° |
| 2026-05-04 20:49 | 49.01871 | 2.55245 | 359 ft | 22 kts | 265° |
| 2026-05-04 20:49 | 49.01858 | 2.54993 | 361 ft | 26 kts | 265° |
| 2026-05-04 20:50 | 49.01841 | 2.54707 | 358 ft | 29 kts | 265° |
| 2026-05-04 20:50 | 49.01826 | 2.54432 | 361 ft | 23 kts | 266° |
| 2026-05-04 20:50 | 49.01813 | 2.54167 | 363 ft | 27 kts | 264° |
| 2026-05-04 20:50 | 49.01796 | 2.53872 | 358 ft | 29 kts | 263° |
| 2026-05-04 20:51 | 49.01776 | 2.53550 | 363 ft | 32 kts | 266° |
| 2026-05-04 20:51 | 49.01761 | 2.53204 | 358 ft | 34 kts | 263° |
| 2026-05-04 20:51 | 49.01741 | 2.52839 | 363 ft | 35 kts | 265° |
| 2026-05-04 20:51 | 49.01720 | 2.52483 | 361 ft | 32 kts | 265° |
| 2026-05-04 20:52 | 49.01708 | 2.52221 | 358 ft | 19 kts | 265° |
| 2026-05-04 20:52 | 49.01695 | 2.51986 | 358 ft | 25 kts | 265° |
| 2026-05-04 20:52 | 49.01679 | 2.51702 | 362 ft | 28 kts | 266° |
| 2026-05-04 20:52 | 49.01663 | 2.51393 | 358 ft | 30 kts | 265° |
| 2026-05-04 20:53 | 49.01646 | 2.51060 | 361 ft | 32 kts | 264° |
| 2026-05-04 20:53 | 49.01625 | 2.50714 | 358 ft | 32 kts | 265° |
| 2026-05-04 20:53 | 49.01610 | 2.50485 | 361 ft | 12 kts | 251° |
| 2026-05-04 20:53 | 49.01532 | 2.50434 | 365 ft | 15 kts | 177° |
| 2026-05-04 20:54 | 49.01412 | 2.50405 | 359 ft | 20 kts | 207° |
| 2026-05-04 20:54 | 49.01285 | 2.50390 | 356 ft | 20 kts | 172° |
| 2026-05-04 20:54 | 49.01147 | 2.50408 | 356 ft | 11 kts | 175° |
| 2026-05-04 20:54 | 49.01101 | 2.50384 | 364 ft | 5 kts | 245° |
| 2026-05-04 20:55 | 49.01097 | 2.50325 | 363 ft | 8 kts | 265° |
| 2026-05-04 20:55 | 49.01094 | 2.50277 | 360 ft | 1 kts | 265° |